createdAt,value
2019-03-12T00:01:34.377Z,100314.66
2019-03-12T00:14:34.777Z,100329.45
2019-03-12T00:17:01.482Z,100331.43
2019-03-12T00:19:28.144Z,100328.91
2019-03-12T00:21:54.843Z,100335.39
2019-03-12T00:24:22.056Z,100328.61
2019-03-12T00:26:48.852Z,100341.91
2019-03-12T00:29:15.570Z,100336.01
2019-03-12T00:31:42.275Z,100323.04
2019-03-12T00:34:09.055Z,100325.02
2019-03-12T00:36:35.757Z,100326.30
2019-03-12T00:39:03.650Z,100328.69
2019-03-12T00:41:30.365Z,100325.65
2019-03-12T00:43:57.222Z,100330.31
2019-03-12T00:46:26.944Z,100328.98
2019-03-12T00:48:52.374Z,100326.41
2019-03-12T00:51:19.062Z,100324.52
2019-03-12T00:53:45.742Z,100325.65
2019-03-12T00:56:12.437Z,100324.05
2019-03-12T00:58:39.123Z,100323.83
2019-03-12T01:01:05.920Z,100328.85
2019-03-12T01:03:32.691Z,100328.19
2019-03-12T01:05:59.356Z,100334.23
2019-03-12T01:08:26.159Z,100329.07
2019-03-12T01:10:52.842Z,100332.03
2019-03-12T01:13:19.631Z,100326.46
2019-03-12T01:15:46.417Z,100335.95
2019-03-12T01:18:13.939Z,100344.49
2019-03-12T01:20:42.890Z,100330.53
2019-03-12T01:23:09.698Z,100337.64
2019-03-12T01:25:36.473Z,100340.42
2019-03-12T01:28:03.291Z,100336.13
2019-03-12T01:30:29.991Z,100345.87
2019-03-12T01:32:56.787Z,100336.75
2019-03-12T01:35:23.495Z,100343.16
2019-03-12T01:37:50.090Z,100328.29
2019-03-12T01:40:16.796Z,100333.13
2019-03-12T01:42:43.507Z,100333.74
2019-03-12T01:45:11.797Z,100328.66
2019-03-12T01:47:38.589Z,100328.80
2019-03-12T01:50:05.545Z,100334.27
2019-03-12T01:52:32.141Z,100337.54
2019-03-12T01:54:58.812Z,100333.00
2019-03-12T01:57:25.505Z,100337.29
2019-03-12T01:59:52.276Z,100328.88
2019-03-12T02:02:18.975Z,100330.19
2019-03-12T02:04:45.646Z,100335.27
2019-03-12T02:07:12.345Z,100343.09
2019-03-12T02:09:39.024Z,100335.32
2019-03-12T02:12:05.724Z,100340.45
2019-03-12T02:14:32.416Z,100337.95
2019-03-12T02:16:59.049Z,100335.47
2019-03-12T02:19:25.815Z,100333.74
2019-03-12T02:21:52.591Z,100329.90
2019-03-12T02:24:19.312Z,100334.11
2019-03-12T02:26:46.093Z,100322.87
2019-03-12T02:29:12.894Z,100321.51
2019-03-12T02:31:39.571Z,100334.59
2019-03-12T02:34:06.381Z,100320.25
2019-03-12T02:36:33.166Z,100321.06
2019-03-12T02:38:59.907Z,100328.00
2019-03-12T02:41:26.600Z,100316.45
2019-03-12T02:43:53.193Z,100305.67
2019-03-12T02:46:19.959Z,100314.25
2019-03-12T02:48:46.759Z,100311.54
2019-03-12T02:51:13.520Z,100292.97
2019-03-12T02:53:40.215Z,100304.73
2019-03-12T02:56:06.788Z,100311.69
2019-03-12T02:58:33.493Z,100301.09
2019-03-12T03:01:00.178Z,100302.89
2019-03-12T03:03:26.874Z,100303.41
2019-03-12T03:06:02.792Z,100307.99
2019-03-12T03:08:31.783Z,100312.69
2019-03-12T03:10:58.478Z,100308.09
2019-03-12T03:13:25.168Z,100310.23
2019-03-12T03:15:51.965Z,100309.94
2019-03-12T03:18:18.766Z,100313.86
2019-03-12T03:20:45.478Z,100308.59
2019-03-12T03:23:12.292Z,100313.02
2019-03-12T03:25:39.177Z,100314.67
2019-03-12T03:28:06.030Z,100313.86
2019-03-12T03:30:32.844Z,100313.36
2019-03-12T03:32:59.666Z,100314.97
2019-03-12T03:35:26.423Z,100314.42
2019-03-12T03:37:53.224Z,100314.75
2019-03-12T03:40:20.401Z,100312.11
2019-03-12T03:42:47.450Z,100303.72
2019-03-12T03:45:14.441Z,100302.77
2019-03-12T03:47:41.185Z,100298.89
2019-03-12T03:50:08.228Z,100292.74
2019-03-12T03:52:35.053Z,100290.25
2019-03-12T03:55:01.895Z,100288.20
2019-03-12T03:57:28.568Z,100286.23
2019-03-12T03:59:55.360Z,100286.84
2019-03-12T04:02:22.044Z,100289.16
2019-03-12T04:04:48.857Z,100284.25
2019-03-12T04:07:15.642Z,100292.09
2019-03-12T04:09:42.448Z,100287.92
2019-03-12T04:12:09.258Z,100279.39
2019-03-12T04:14:36.073Z,100282.94
2019-03-12T04:17:02.875Z,100289.59
2019-03-12T04:19:30.268Z,100285.87
2019-03-12T04:21:57.059Z,100285.47
2019-03-12T04:24:23.772Z,100283.67
2019-03-12T04:26:51.442Z,100285.61
2019-03-12T04:29:18.219Z,100288.03
2019-03-12T04:31:44.921Z,100286.84
2019-03-12T04:34:20.403Z,100282.86
2019-03-12T04:36:48.360Z,100286.77
2019-03-12T04:39:15.162Z,100279.48
2019-03-12T04:41:41.852Z,100280.64
2019-03-12T04:44:08.540Z,100278.59
2019-03-12T04:46:35.328Z,100279.58
2019-03-12T04:49:02.321Z,100273.30
2019-03-12T04:51:29.100Z,100271.95
2019-03-12T04:53:55.894Z,100267.03
2019-03-12T04:56:22.576Z,100263.77
2019-03-12T04:58:49.286Z,100256.91
2019-03-12T05:01:16.073Z,100261.91
2019-03-12T05:03:42.845Z,100263.31
2019-03-12T05:06:09.703Z,100263.13
2019-03-12T05:08:36.408Z,100262.02
2019-03-12T05:11:03.232Z,100263.42
2019-03-12T05:13:30.023Z,100266.12
2019-03-12T05:15:56.817Z,100264.27
2019-03-12T05:18:23.604Z,100264.41
2019-03-12T05:20:50.299Z,100267.36
2019-03-12T05:23:16.882Z,100261.72
2019-03-12T05:25:43.682Z,100260.89
2019-03-12T05:28:10.362Z,100252.75
2019-03-12T05:30:37.191Z,100251.14
2019-03-12T05:33:03.934Z,100244.74
2019-03-12T05:35:30.732Z,100237.17
2019-03-12T05:37:57.551Z,100242.23
2019-03-12T05:40:24.139Z,100239.85
2019-03-12T05:42:50.914Z,100239.66
2019-03-12T05:45:17.701Z,100233.27
2019-03-12T05:47:44.495Z,100234.03
2019-03-12T05:50:11.751Z,100225.23
2019-03-12T05:52:38.524Z,100229.07
2019-03-12T05:55:05.355Z,100225.67
2019-03-12T05:57:32.117Z,100214.64
2019-03-12T05:59:58.911Z,100206.34
2019-03-12T06:02:25.584Z,100200.33
2019-03-12T06:04:52.178Z,100194.86
2019-03-12T06:07:18.853Z,100199.10
2019-03-12T06:09:45.651Z,100197.96
2019-03-12T06:12:12.438Z,100188.98
2019-03-12T06:14:39.145Z,100192.13
2019-03-12T06:17:05.910Z,100182.07
2019-03-12T06:19:32.687Z,100178.93
2019-03-12T06:21:59.384Z,100184.05
2019-03-12T06:24:26.180Z,100186.61
2019-03-12T06:26:52.961Z,100184.13
2019-03-12T06:29:19.534Z,100180.21
2019-03-12T06:31:53.052Z,100177.28
2019-03-12T06:34:45.336Z,100184.27
2019-03-12T06:37:31.821Z,100182.69
2019-03-12T06:40:04.983Z,100167.26
2019-03-12T06:42:49.839Z,100164.42
2019-03-12T06:45:40.563Z,100162.82
2019-03-12T06:48:25.512Z,100154.86
2019-03-12T06:51:11.862Z,100158.22
2019-03-12T06:53:56.570Z,100160.78
2019-03-12T06:56:29.689Z,100150.97
2019-03-12T06:59:10.170Z,100155.23
2019-03-12T07:01:52.565Z,100152.74
2019-03-12T07:04:56.918Z,100155.16
2019-03-12T07:08:06.140Z,100158.03
2019-03-12T07:10:59.717Z,100150.38
2019-03-12T07:13:38.287Z,100139.23
2019-03-12T07:16:27.656Z,100139.77
2019-03-12T07:19:19.958Z,100134.73
2019-03-12T07:22:09.236Z,100128.53
2019-03-12T07:24:44.722Z,100124.70
2019-03-12T07:27:35.102Z,100116.70
2019-03-12T07:30:20.204Z,100108.96
2019-03-12T07:32:59.093Z,100097.20
2019-03-12T07:36:00.453Z,100089.09
2019-03-12T07:38:32.746Z,100089.09
2019-03-12T07:41:06.777Z,100078.82
2019-03-12T07:43:51.417Z,100068.06
2019-03-12T07:46:35.609Z,100068.45
2019-03-12T07:49:40.097Z,100069.59
2019-03-12T07:52:38.317Z,100069.59
2019-03-12T07:55:29.913Z,100061.23
2019-03-12T07:58:12.831Z,100063.21
2019-03-12T08:00:52.329Z,100066.56
2019-03-12T08:03:25.901Z,100060.05
2019-03-12T08:06:08.849Z,100056.67
2019-03-12T08:08:54.199Z,100050.14
2019-03-12T08:11:36.393Z,100046.38
2019-03-12T08:14:22.792Z,100041.38
2019-03-12T08:17:14.974Z,100037.30
2019-03-12T08:19:52.253Z,100020.34
2019-03-12T08:22:44.564Z,100016.98
2019-03-12T08:25:33.661Z,100010.84
2019-03-12T08:28:25.878Z,100008.98
2019-03-12T08:30:59.695Z,99996.15
2019-03-12T08:33:35.507Z,99992.08
2019-03-12T08:36:22.104Z,100000.41
2019-03-12T08:38:59.947Z,99995.13
2019-03-12T08:41:46.327Z,99979.92
2019-03-12T08:44:31.281Z,100003.48
2019-03-12T08:47:26.766Z,99965.84
2019-03-12T08:50:17.734Z,99964.75
2019-03-12T08:52:57.314Z,99960.70
2019-03-12T08:55:49.601Z,99959.12
2019-03-12T08:58:25.694Z,99957.52
2019-03-12T09:01:15.035Z,99955.23
2019-03-12T09:04:16.345Z,99943.38
2019-03-12T09:07:11.637Z,99855.19
2019-03-12T09:09:56.095Z,99944.45
2019-03-12T09:12:45.373Z,99939.95
2019-03-12T09:15:30.402Z,99927.53
2019-03-12T09:18:18.971Z,99919.24
2019-03-12T09:21:05.396Z,99921.30
2019-03-12T09:23:46.542Z,99916.55
2019-03-12T09:26:35.787Z,99905.06
2019-03-12T09:29:12.173Z,99897.99
2019-03-12T09:31:47.714Z,99876.25
2019-03-12T09:34:32.444Z,99874.27
2019-03-12T09:37:18.893Z,99876.02
2019-03-12T09:40:05.500Z,99867.87
2019-03-12T09:42:55.165Z,99883.88
2019-03-12T09:45:59.822Z,99859.94
2019-03-12T09:48:48.867Z,99861.01
2019-03-12T09:51:23.006Z,99851.22
2019-03-12T09:54:21.322Z,99848.63
2019-03-12T09:57:07.837Z,99860.45
2019-03-12T09:59:45.772Z,99828.61
2019-03-12T10:02:26.438Z,99834.37
2019-03-12T10:05:11.683Z,99834.66
2019-03-12T10:07:58.122Z,99820.22
2019-03-12T10:10:42.539Z,99808.86
2019-03-12T10:13:16.379Z,99795.59
2019-03-12T10:16:02.339Z,99794.11
2019-03-12T10:18:49.909Z,99795.30
2019-03-12T10:21:36.403Z,99792.00
2019-03-12T10:24:21.735Z,99792.22
2019-03-12T10:26:55.355Z,99778.25
2019-03-12T10:29:30.544Z,99779.75
2019-03-12T10:32:05.516Z,99777.92
2019-03-12T10:34:45.586Z,99754.23
2019-03-12T10:37:30.530Z,99757.82
2019-03-12T10:40:14.600Z,99745.06
2019-03-12T10:42:49.942Z,99739.36
2019-03-12T10:45:23.591Z,99751.31
2019-03-12T10:47:52.520Z,99747.46
2019-03-12T10:50:20.039Z,99716.54
2019-03-12T10:52:46.829Z,99740.17
2019-03-12T10:55:14.134Z,99727.09
2019-03-12T10:57:41.213Z,99719.21
2019-03-12T11:00:08.698Z,99706.52
2019-03-12T11:02:35.486Z,99708.05
2019-03-12T11:05:03.082Z,99702.65
2019-03-12T11:07:30.128Z,99693.47
2019-03-12T11:09:56.927Z,99697.66
2019-03-12T11:12:24.378Z,99670.39
2019-03-12T11:14:52.080Z,99693.00
2019-03-12T11:17:20.226Z,99673.20
2019-03-12T11:19:47.845Z,99661.95
2019-03-12T11:22:14.502Z,99657.96
2019-03-12T11:24:41.307Z,99637.08
2019-03-12T11:27:09.415Z,99643.76
2019-03-12T11:29:36.109Z,99629.63
2019-03-12T11:32:04.146Z,99613.78
2019-03-12T11:34:34.624Z,99623.07
2019-03-12T11:37:03.282Z,99638.59
2019-03-12T11:39:33.659Z,99620.83
2019-03-12T11:42:00.457Z,99603.09
2019-03-12T11:44:28.233Z,99596.50
2019-03-12T11:46:59.589Z,99589.47
2019-03-12T11:49:28.159Z,99589.60
2019-03-12T11:51:55.349Z,99620.25
2019-03-12T11:54:22.392Z,99571.86
2019-03-12T11:56:49.533Z,99564.21
2019-03-12T11:59:17.033Z,99549.42
2019-03-12T12:02:05.572Z,99541.92
2019-03-12T12:04:39.536Z,99587.53
2019-03-12T12:07:08.116Z,99551.58
2019-03-12T12:09:55.243Z,99568.08
2019-03-12T12:12:22.205Z,99580.30
2019-03-12T12:14:49.864Z,99523.95
2019-03-12T12:17:16.943Z,99509.61
2019-03-12T12:19:43.622Z,99499.97
2019-03-12T12:22:10.478Z,99526.98
2019-03-12T12:24:37.159Z,99510.49
2019-03-12T12:27:07.228Z,99506.86
2019-03-12T12:29:34.050Z,99492.80
2019-03-12T12:32:00.909Z,99512.36
2019-03-12T12:34:27.586Z,99485.48
2019-03-12T12:36:54.272Z,99479.75
2019-03-12T12:39:20.863Z,99477.32
2019-03-12T12:41:47.567Z,99466.16
2019-03-12T12:44:14.360Z,99464.36
2019-03-12T12:46:41.184Z,99440.39
2019-03-12T12:49:09.858Z,99443.75
2019-03-12T12:51:37.753Z,99421.25
2019-03-12T12:54:04.525Z,99432.02
2019-03-12T12:56:31.203Z,99410.86
2019-03-12T12:58:57.971Z,99391.25
2019-03-12T13:01:24.775Z,99364.36
2019-03-12T13:03:51.443Z,99372.97
2019-03-12T13:06:18.233Z,99334.02
2019-03-12T13:08:44.996Z,99383.11
2019-03-12T13:11:11.778Z,99334.08
2019-03-12T13:13:38.451Z,99347.01
2019-03-12T13:16:05.138Z,99309.36
2019-03-12T13:18:31.806Z,99309.49
2019-03-12T13:20:58.791Z,99335.30
2019-03-12T13:23:45.195Z,99331.10
2019-03-12T13:26:11.976Z,99288.38
2019-03-12T13:28:38.769Z,99286.33
2019-03-12T13:31:05.527Z,99266.72
2019-03-12T13:33:32.289Z,99262.61
2019-03-12T13:35:59.065Z,99269.46
2019-03-12T13:38:25.726Z,99278.17
2019-03-12T13:40:52.577Z,99247.26
2019-03-12T13:43:19.235Z,99238.55
2019-03-12T13:45:46.036Z,99237.25
2019-03-12T13:48:12.829Z,99280.52
2019-03-12T13:50:39.601Z,99245.03
2019-03-12T13:53:06.461Z,99245.08
2019-03-12T13:55:33.585Z,99228.58
2019-03-12T13:58:00.420Z,99232.45
2019-03-12T14:00:27.310Z,99246.67
2019-03-12T14:02:54.181Z,99204.45
2019-03-12T14:05:20.968Z,99212.86
2019-03-12T14:07:47.732Z,99157.48
2019-03-12T14:10:18.943Z,99172.53
2019-03-12T14:12:45.698Z,99176.12
2019-03-12T14:15:16.019Z,99198.39
2019-03-12T14:17:42.798Z,99255.22
2019-03-12T14:20:38.160Z,99141.74
2019-03-12T14:23:05.360Z,99150.66
2019-03-12T14:25:32.169Z,99146.58
2019-03-12T14:27:58.924Z,99117.00
2019-03-12T14:30:25.707Z,99120.97
2019-03-12T14:32:52.372Z,99093.13
2019-03-12T14:35:19.143Z,99137.77
2019-03-12T14:37:46.957Z,99104.48
2019-03-12T14:40:13.753Z,99126.02
2019-03-12T14:42:40.433Z,99066.27
2019-03-12T14:45:10.509Z,99121.39
2019-03-12T14:47:37.316Z,99112.06
2019-03-12T14:50:05.174Z,99037.77
2019-03-12T14:52:35.948Z,99040.91
2019-03-12T14:55:02.979Z,99054.11
2019-03-12T14:57:29.667Z,99031.85
2019-03-12T14:59:56.342Z,99001.67
2019-03-12T15:02:23.142Z,98973.78
2019-03-12T15:04:49.938Z,99041.02
2019-03-12T15:07:16.711Z,98985.11
2019-03-12T15:09:43.395Z,98983.33
2019-03-12T15:12:11.714Z,99014.57
2019-03-12T15:14:38.651Z,98968.95
2019-03-12T15:17:05.477Z,98951.28
2019-03-12T15:19:32.144Z,98953.38
2019-03-12T15:21:58.955Z,98959.25
2019-03-12T15:24:25.780Z,98961.84
2019-03-12T15:26:52.617Z,98944.19
2019-03-12T15:29:19.418Z,98955.08
2019-03-12T15:31:46.239Z,98940.67
2019-03-12T15:34:12.897Z,98891.80
2019-03-12T15:36:39.761Z,98904.33
2019-03-12T15:39:07.485Z,98870.10
2019-03-12T15:41:34.303Z,98924.59
2019-03-12T15:44:02.896Z,98902.70
2019-03-12T15:46:29.597Z,98936.68
2019-03-12T15:48:56.359Z,98846.59
2019-03-12T15:51:23.062Z,98887.03
2019-03-12T15:53:49.838Z,98866.89
2019-03-12T15:56:16.498Z,98867.17
2019-03-12T15:58:43.291Z,98886.60
2019-03-12T16:01:10.066Z,98878.98
2019-03-12T16:03:36.857Z,98866.95
2019-03-12T16:06:03.630Z,98853.02
2019-03-12T16:08:30.324Z,98829.42
2019-03-12T16:10:58.492Z,98853.22
2019-03-12T16:13:25.512Z,98857.64
2019-03-12T16:15:52.271Z,98818.68
2019-03-12T16:18:19.062Z,98816.95
2019-03-12T16:20:45.816Z,98819.62
2019-03-12T16:23:12.687Z,98829.92
2019-03-12T16:25:39.447Z,98789.29
2019-03-12T16:28:06.260Z,98790.86
2019-03-12T16:30:33.022Z,98783.97
2019-03-12T16:32:59.717Z,98782.27
2019-03-12T16:35:26.387Z,98755.84
2019-03-12T16:37:53.121Z,98768.48
2019-03-12T16:40:19.885Z,98764.06
2019-03-12T16:42:46.629Z,98741.58
2019-03-12T16:45:13.402Z,98720.92
2019-03-12T16:47:40.181Z,98749.78
2019-03-12T16:50:07.231Z,98733.89
2019-03-12T16:52:33.914Z,98723.62
2019-03-12T16:55:00.697Z,98723.34
2019-03-12T16:57:27.399Z,98693.34
2019-03-12T16:59:54.072Z,98681.65
2019-03-12T17:02:20.770Z,98674.33
2019-03-12T17:04:47.552Z,98684.29
2019-03-12T17:07:14.134Z,98637.16
2019-03-12T17:09:40.969Z,98645.40
2019-03-12T17:12:07.788Z,98653.82
2019-03-12T17:14:38.994Z,98665.36
2019-03-12T17:17:03.268Z,98631.25
2019-03-12T17:19:29.959Z,98622.36
2019-03-12T17:21:56.717Z,98628.27
2019-03-12T17:24:23.515Z,98613.27
2019-03-12T17:26:50.202Z,98688.83
2019-03-12T17:29:17.058Z,98605.52
2019-03-12T17:31:43.628Z,98608.92
2019-03-12T17:34:10.389Z,98607.30
2019-03-12T17:36:37.067Z,98592.61
2019-03-12T17:39:06.215Z,98590.52
2019-03-12T17:41:33.006Z,98584.00
2019-03-12T17:43:59.704Z,98543.13
2019-03-12T17:46:26.398Z,98551.47
2019-03-12T17:48:53.182Z,98550.47
2019-03-12T17:51:19.857Z,98551.33
2019-03-12T17:53:46.447Z,98528.53
2019-03-12T17:56:13.123Z,98534.70
2019-03-12T17:58:39.815Z,98516.39
2019-03-12T18:01:06.604Z,98522.48
2019-03-12T18:03:33.303Z,98517.32
2019-03-12T18:05:59.981Z,98489.91
2019-03-12T18:08:26.761Z,98500.30
2019-03-12T18:10:53.535Z,98482.09
2019-03-12T18:13:20.327Z,98489.91
2019-03-12T18:15:47.267Z,98496.97
2019-03-12T18:18:13.974Z,98470.81
2019-03-12T18:20:43.780Z,98418.38
2019-03-12T18:23:09.358Z,98468.36
2019-03-12T18:25:36.184Z,98411.74
2019-03-12T18:28:02.979Z,98460.01
2019-03-12T18:30:29.798Z,98447.93
2019-03-12T18:32:56.562Z,98458.86
2019-03-12T18:35:23.370Z,98455.56
2019-03-12T18:37:50.227Z,98430.64
2019-03-12T18:40:17.572Z,98432.54
2019-03-12T18:42:44.350Z,98408.70
2019-03-12T18:45:13.705Z,98426.15
2019-03-12T18:47:40.468Z,98392.39
2019-03-12T18:50:08.104Z,98342.66
2019-03-12T18:52:34.776Z,98405.73
2019-03-12T18:55:01.559Z,98382.66
2019-03-12T18:57:28.267Z,98365.23
2019-03-12T18:59:54.956Z,98372.80
2019-03-12T19:02:21.618Z,98353.51
2019-03-12T19:04:48.404Z,98365.68
2019-03-12T19:07:18.281Z,98384.21
2019-03-12T19:09:43.752Z,98354.80
2019-03-12T19:12:10.529Z,98371.28
2019-03-12T19:14:37.323Z,98336.77
2019-03-12T19:17:04.610Z,98310.35
2019-03-12T19:19:31.395Z,98313.75
2019-03-12T19:21:58.194Z,98353.25
2019-03-12T19:24:24.995Z,98293.63
2019-03-12T19:26:51.799Z,98315.59
2019-03-12T19:29:18.638Z,98305.27
2019-03-12T19:31:50.936Z,98282.34
2019-03-12T19:34:24.526Z,98310.00
2019-03-12T19:36:51.185Z,98290.70
2019-03-12T19:39:18.115Z,98287.58
2019-03-12T19:41:44.789Z,98290.60
2019-03-12T19:44:11.560Z,98286.78
2019-03-12T19:46:38.255Z,98255.19
2019-03-12T19:49:05.016Z,98247.25
2019-03-12T19:51:31.798Z,98254.80
2019-03-12T19:53:58.556Z,98231.77
2019-03-12T19:56:25.365Z,98262.84
2019-03-12T19:58:52.128Z,98223.03
2019-03-12T20:01:20.237Z,98240.17
2019-03-12T20:03:47.163Z,98234.60
2019-03-12T20:06:13.919Z,98223.81
2019-03-12T20:08:40.677Z,98200.59
2019-03-12T20:11:44.029Z,98218.24
2019-03-12T20:14:51.011Z,98236.41
2019-03-12T20:17:54.249Z,98249.46
2019-03-12T20:21:14.099Z,98218.86
2019-03-12T20:24:09.093Z,98180.93
2019-03-12T20:27:05.131Z,98174.69
2019-03-12T20:30:35.003Z,98144.07
2019-03-12T20:33:40.681Z,98126.78
2019-03-12T20:36:50.785Z,98139.57
2019-03-12T20:39:53.987Z,98131.25
2019-03-12T20:42:58.591Z,98125.27
2019-03-12T20:46:10.709Z,98124.70
2019-03-12T20:49:11.686Z,98179.31
2019-03-12T20:52:28.388Z,98131.55
2019-03-12T20:55:32.681Z,98103.16
2019-03-12T20:58:56.772Z,98140.24
2019-03-12T21:02:14.216Z,98152.72
2019-03-12T21:05:24.863Z,98171.37
2019-03-12T21:08:29.378Z,98186.55
2019-03-12T21:11:42.069Z,98154.14
2019-03-12T21:14:50.327Z,98121.22
2019-03-12T21:17:57.177Z,98072.55
2019-03-12T21:21:10.674Z,98053.78
2019-03-12T21:23:50.780Z,98070.44
2019-03-12T21:27:02.771Z,98056.55
2019-03-12T21:29:40.837Z,98048.06
2019-03-12T21:32:07.623Z,98035.25
2019-03-12T21:34:34.319Z,98046.90
2019-03-12T21:37:00.902Z,98042.05
2019-03-12T21:39:27.705Z,98040.88
2019-03-12T21:41:54.539Z,98025.05
2019-03-12T21:44:21.252Z,98046.55
2019-03-12T21:46:48.077Z,98038.81
2019-03-12T21:49:14.880Z,98042.20
2019-03-12T21:51:41.661Z,98027.62
2019-03-12T21:54:08.233Z,98017.62
2019-03-12T21:56:34.920Z,98010.15
2019-03-12T21:59:01.651Z,98044.35
2019-03-12T22:01:28.247Z,98034.20
2019-03-12T22:03:55.050Z,98028.01
2019-03-12T22:06:21.897Z,98033.11
2019-03-12T22:08:48.731Z,97981.56
2019-03-12T22:11:15.409Z,98012.39
2019-03-12T22:13:42.009Z,98002.48
2019-03-12T22:16:08.710Z,97999.40
2019-03-12T22:18:35.502Z,97998.45
2019-03-12T22:21:02.181Z,97998.55
2019-03-12T22:23:36.114Z,97974.75
2019-03-12T22:26:02.901Z,97984.74
2019-03-12T22:28:29.677Z,97982.33
2019-03-12T22:30:56.350Z,97966.56
2019-03-12T22:33:23.021Z,97974.17
2019-03-12T22:35:49.776Z,97971.75
2019-03-12T22:38:16.460Z,97920.53
2019-03-12T22:40:43.233Z,97924.58
2019-03-12T22:43:10.012Z,97960.90
2019-03-12T22:45:36.780Z,97959.33
2019-03-12T22:48:03.566Z,97968.83
2019-03-12T22:50:30.240Z,97916.73
2019-03-12T22:52:56.940Z,97963.27
2019-03-12T22:55:23.705Z,97894.78
2019-03-12T22:57:50.395Z,97957.40
2019-03-12T23:00:17.177Z,97963.53
2019-03-12T23:02:43.978Z,97978.55
2019-03-12T23:05:11.248Z,97970.08
2019-03-12T23:07:37.983Z,97991.73
2019-03-12T23:10:04.871Z,97968.17
2019-03-12T23:12:31.566Z,97976.73
2019-03-12T23:14:58.434Z,97986.91
2019-03-12T23:17:25.174Z,97964.30
2019-03-12T23:19:51.959Z,98039.66
2019-03-12T23:22:18.639Z,98038.41
2019-03-12T23:24:45.414Z,98100.86
2019-03-12T23:27:12.211Z,98137.88
2019-03-12T23:29:38.781Z,98136.34
2019-03-12T23:32:05.486Z,98150.89
2019-03-12T23:34:32.276Z,98143.76
2019-03-12T23:36:59.155Z,98153.42
2019-03-12T23:39:25.953Z,98178.44
2019-03-12T23:41:52.768Z,98209.19
2019-03-12T23:44:19.439Z,98185.45
2019-03-12T23:46:46.456Z,98165.31
2019-03-12T23:49:13.232Z,98221.27
2019-03-12T23:51:40.029Z,98222.50
2019-03-12T23:54:07.125Z,98234.13
2019-03-12T23:56:33.902Z,98234.33
2019-03-12T23:59:00.700Z,98252.32
